Time;durP1;ratioP1;P1;durP2;ratioP2;P2;SDS_P1;SDS_P2;PMS_P1;PMS_P2;Temp;Humidity;BMP_temperature;BMP_pressure;BME280_temperature;BME280_humidity;BME280_pressure;Samples;Min_cycle;Max_cycle;Signal;HPM_P1;HPM_P2
2023/06/03 00:01:28;;;;;;;4.55;2.90;;;15.60;49.50;;;;;;5030609;28;20613;-45
2023/06/03 00:03:55;;;;;;;3.33;3.03;;;15.60;49.50;;;;;;5022549;28;20101;-45
2023/06/03 00:06:26;;;;;;;3.60;3.03;;;15.50;49.60;;;;;;5015284;28;20485;-43
2023/06/03 00:08:57;;;;;;;5.10;3.97;;;15.50;49.50;;;;;;5032078;28;20525;-45
2023/06/03 00:11:24;;;;;;;3.40;2.88;;;15.50;49.90;;;;;;5030944;28;20045;-45
2023/06/03 00:13:53;;;;;;;4.45;3.38;;;15.50;49.80;;;;;;5007614;28;20088;-45
2023/06/03 00:16:20;;;;;;;4.45;2.95;;;15.40;49.80;;;;;;5021527;28;20131;-44
2023/06/03 00:18:49;;;;;;;5.18;3.50;;;15.40;49.80;;;;;;5031450;28;20076;-46
2023/06/03 00:21:17;;;;;;;3.58;3.28;;;15.40;49.90;;;;;;5030881;28;20406;-46
2023/06/03 00:23:45;;;;;;;4.53;2.90;;;15.40;49.80;;;;;;5009247;28;20093;-45
2023/06/03 00:26:12;;;;;;;4.82;3.45;;;15.30;49.80;;;;;;5014143;28;20037;-44
2023/06/03 00:28:55;;;;;;;;;;;15.30;49.80;;;;;;5031057;28;20033;-45
2023/06/03 00:31:22;;;;;;;4.80;3.05;;;15.30;49.30;;;;;;5030544;28;19921;-48
2023/06/03 00:33:51;;;;;;;4.55;3.10;;;15.30;49.20;;;;;;5004062;28;20097;-45
2023/06/03 00:36:18;;;;;;;5.57;3.88;;;15.20;49.40;;;;;;5007604;28;20120;-45
2023/06/03 00:38:46;;;;;;;6.68;3.20;;;15.20;49.50;;;;;;5007725;28;20152;-47
2023/06/03 00:41:16;;;;;;;3.50;2.90;;;15.10;49.60;;;;;;5005610;28;20050;-44
2023/06/03 00:43:47;;;;;;;3.70;3.20;;;15.10;49.90;;;;;;5016619;28;20061;-47
2023/06/03 00:46:19;;;;;;;4.20;3.15;;;15.10;50.00;;;;;;5031084;28;20037;-47
2023/06/03 00:48:50;;;;;;;3.63;2.83;;;15.00;50.10;;;;;;5030753;28;20041;-48
2023/06/03 00:51:21;;;;;;;5.28;3.13;;;15.00;50.10;;;;;;5012821;28;20042;-48
2023/06/03 00:53:52;;;;;;;;;;;14.90;49.90;;;;;;5000439;28;20185;-46
2023/06/03 00:56:19;;;;;;;3.78;2.90;;;15.00;49.60;;;;;;5015404;28;20341;-46
2023/06/03 00:58:48;;;;;;;4.13;3.05;;;14.90;49.50;;;;;;5012878;28;20053;-45
2023/06/03 01:01:19;;;;;;;5.95;3.45;;;14.80;49.60;;;;;;5030479;28;20053;-45
2023/06/03 01:03:52;;;;;;;4.45;3.30;;;14.80;49.90;;;;;;4998919;28;20112;-45
2023/06/03 01:06:35;;;;;;;3.67;3.10;;;14.70;50.80;;;;;;5024997;28;20037;-44
2023/06/03 01:09:14;;;;;;;4.68;3.45;;;14.70;50.50;;;;;;5012369;28;20100;-46
2023/06/03 01:11:56;;;;;;;4.22;2.75;;;14.70;50.70;;;;;;5024439;28;20116;-45
2023/06/03 01:14:34;;;;;;;3.67;3.10;;;14.60;51.30;;;;;;5012179;28;20054;-44
2023/06/03 01:17:09;;;;;;;4.65;2.88;;;14.60;50.80;;;;;;5012517;28;20053;-45
2023/06/03 01:19:52;;;;;;;5.10;3.10;;;14.60;50.80;;;;;;5008228;28;20068;-45
2023/06/03 01:22:24;;;;;;;5.45;3.15;;;14.60;51.40;;;;;;4993735;28;20050;-44
2023/06/03 01:25:05;;;;;;;5.43;3.42;;;14.50;50.60;;;;;;5009782;28;20301;-44
2023/06/03 01:27:35;;;;;;;3.80;3.28;;;14.50;51.40;;;;;;5007532;28;20057;-48
2023/06/03 01:30:03;;;;;;;7.43;3.22;;;14.50;50.70;;;;;;5011832;28;20145;-49
2023/06/03 01:32:34;;;;;;;4.50;3.28;;;14.40;50.70;;;;;;5003874;28;20413;-43
2023/06/03 01:35:02;;;;;;;4.38;3.35;;;14.40;50.70;;;;;;5000031;28;20045;-45
2023/06/03 01:37:31;;;;;;;5.32;4.50;;;14.30;50.80;;;;;;5023740;28;20429;-43
2023/06/03 01:40:04;;;;;;;5.63;3.30;;;14.30;50.70;;;;;;5010822;28;20047;-44
2023/06/03 01:42:35;;;;;;;4.18;3.25;;;14.30;51.20;;;;;;4987194;28;20033;-45
2023/06/03 01:45:08;;;;;;;5.22;3.45;;;14.20;50.80;;;;;;5002636;28;20045;-48
2023/06/03 01:47:37;;;;;;;4.60;3.63;;;14.20;51.00;;;;;;5012681;28;20041;-44
2023/06/03 01:50:09;;;;;;;4.28;2.97;;;14.20;51.00;;;;;;4997935;28;20041;-46
2023/06/03 01:52:38;;;;;;;3.72;3.22;;;14.10;51.30;;;;;;5005049;28;20044;-47
2023/06/03 01:55:07;;;;;;;4.10;3.70;;;14.10;51.30;;;;;;4990077;28;20034;-47
2023/06/03 01:57:37;;;;;;;4.65;3.67;;;14.10;51.40;;;;;;5025247;28;20042;-45
2023/06/03 02:00:11;;;;;;;7.72;3.92;;;14.00;51.40;;;;;;5011842;28;20345;-46
2023/06/03 02:02:40;;;;;;;6.30;3.83;;;14.00;51.40;;;;;;5014454;28;20107;-47
2023/06/03 02:05:09;;;;;;;4.93;3.50;;;14.00;51.40;;;;;;5009846;28;20041;-44
2023/06/03 02:07:36;;;;;;;5.20;4.15;;;14.00;51.50;;;;;;5005693;28;20457;-46
2023/06/03 02:10:05;;;;;;;4.43;3.42;;;14.00;51.60;;;;;;5011597;28;20115;-45
2023/06/03 02:12:32;;;;;;;6.47;4.32;;;14.00;51.50;;;;;;4991536;28;20041;-49
2023/06/03 02:15:00;;;;;;;5.50;4.03;;;13.90;51.60;;;;;;4991231;28;20060;-47
2023/06/03 02:17:29;;;;;;;6.35;4.00;;;13.90;51.60;;;;;;5010824;28;20041;-45
2023/06/03 02:19:57;;;;;;;3.50;3.17;;;13.90;51.70;;;;;;4994597;28;20041;-47
2023/06/03 02:22:26;;;;;;;5.40;3.35;;;13.80;51.90;;;;;;5008096;28;20049;-45
2023/06/03 02:24:57;;;;;;;5.75;4.00;;;13.80;51.80;;;;;;4990875;28;20441;-46
2023/06/03 02:27:27;;;;;;;6.40;4.63;;;13.80;51.90;;;;;;5023201;28;20559;-44
2023/06/03 02:29:54;;;;;;;5.22;3.90;;;13.80;52.00;;;;;;5033303;28;20049;-45
2023/06/03 02:32:26;;;;;;;7.47;4.38;;;13.80;52.30;;;;;;5026784;28;20046;-45
2023/06/03 02:34:54;;;;;;;6.70;4.43;;;13.70;52.40;;;;;;5020619;28;20120;-45
2023/06/03 02:37:20;;;;;;;5.85;4.20;;;13.70;52.40;;;;;;5016208;28;20379;-44
2023/06/03 02:39:55;;;;;;;5.40;3.83;;;13.70;52.50;;;;;;5015450;28;20107;-45
2023/06/03 02:42:25;;;;;;;6.32;4.15;;;13.70;52.60;;;;;;4990910;28;20048;-45
2023/06/03 02:44:52;;;;;;;6.47;4.10;;;13.70;52.60;;;;;;4991824;28;20485;-45
2023/06/03 02:47:19;;;;;;;7.55;4.13;;;13.70;52.80;;;;;;5016045;28;20045;-45
2023/06/03 02:49:52;;;;;;;7.40;4.43;;;13.70;53.20;;;;;;5032972;28;20049;-44
2023/06/03 02:52:18;;;;;;;4.78;4.22;;;13.70;53.00;;;;;;4998474;28;20037;-48
2023/06/03 02:54:54;;;;;;;6.82;4.45;;;13.70;53.30;;;;;;4998238;28;20049;-48
2023/06/03 02:57:23;;;;;;;7.20;4.60;;;13.70;53.30;;;;;;5007501;28;20502;-46
2023/06/03 02:59:50;;;;;;;7.32;4.70;;;13.70;53.40;;;;;;5013691;28;20057;-44
2023/06/03 03:02:24;;;;;;;5.07;4.57;;;13.70;53.50;;;;;;5019172;28;20050;-46
2023/06/03 03:04:53;;;;;;;6.47;4.97;;;13.70;53.70;;;;;;4994862;28;20057;-45
2023/06/03 03:07:27;;;;;;;7.30;4.70;;;13.70;53.70;;;;;;5016308;28;20045;-45
2023/06/03 03:09:56;;;;;;;7.07;4.85;;;13.70;53.70;;;;;;5032874;28;20045;-46
2023/06/03 03:12:30;;;;;;;5.38;4.18;;;13.70;53.80;;;;;;4997215;28;20070;-45
2023/06/03 03:14:59;;;;;;;6.28;4.63;;;13.70;53.90;;;;;;5013581;28;20391;-46
2023/06/03 03:17:32;;;;;;;5.45;4.55;;;13.70;54.00;;;;;;4997239;28;20078;-45
2023/06/03 03:20:06;;;;;;;6.90;5.38;;;13.70;54.10;;;;;;5014128;28;20076;-46
2023/06/03 03:22:40;;;;;;;5.53;4.93;;;13.70;54.10;;;;;;5014293;28;20133;-47
2023/06/03 03:25:09;;;;;;;5.72;4.05;;;13.70;55.10;;;;;;4992760;28;20046;-45
2023/06/03 03:27:37;;;;;;;5.68;4.10;;;13.70;54.20;;;;;;4998196;28;20057;-45
2023/06/03 03:30:06;;;;;;;5.78;4.38;;;13.70;54.10;;;;;;5014904;28;20095;-45
2023/06/03 03:32:34;;;;;;;6.82;4.55;;;13.70;54.00;;;;;;5011823;28;20049;-44
2023/06/03 03:35:13;;;;;;;5.97;4.68;;;13.70;54.10;;;;;;4991688;28;20054;-45
2023/06/03 03:37:58;;;;;;;8.13;4.32;;;13.70;54.70;;;;;;5015439;28;20037;-45
2023/06/03 03:40:29;;;;;;;7.35;4.47;;;13.70;54.10;;;;;;5010507;28;20045;-45
2023/06/03 03:42:59;;;;;;;7.00;4.43;;;13.70;54.10;;;;;;5005306;28;20051;-46
2023/06/03 03:45:36;;;;;;;8.10;4.75;;;13.70;54.40;;;;;;5028965;28;20042;-46
2023/06/03 03:48:15;;;;;;;7.10;4.68;;;13.70;55.90;;;;;;5014910;28;20045;-47
2023/06/03 03:50:46;;;;;;;8.77;4.85;;;13.70;54.90;;;;;;4997763;28;20045;-45
2023/06/03 03:53:29;;;;;;;6.43;4.93;;;13.70;55.10;;;;;;5006692;28;20421;-47
2023/06/03 03:55:57;;;;;;;5.38;4.43;;;13.70;55.20;;;;;;4994680;28;20046;-49
2023/06/03 03:58:43;;;;;;;7.25;5.05;;;13.70;54.80;;;;;;5006109;28;20630;-44
2023/06/03 04:01:17;;;;;;;8.63;4.55;;;13.70;55.80;;;;;;5014022;28;20073;-45
2023/06/03 04:03:57;;;;;;;6.50;4.15;;;13.70;55.00;;;;;;4994781;28;20136;-44
2023/06/03 04:06:36;;;;;;;5.68;5.07;;;13.70;55.20;;;;;;5029817;28;20117;-43
2023/06/03 04:09:08;;;;;;;7.00;5.10;;;13.70;55.60;;;;;;5031971;28;20029;-49
2023/06/03 04:11:37;;;;;;;5.60;4.57;;;13.70;55.30;;;;;;5020840;28;20398;-45
2023/06/03 04:14:10;;;;;;;8.32;4.80;;;13.80;55.60;;;;;;5004139;28;20776;-44
2023/06/03 04:17:02;;;;;;;6.25;4.72;;;13.80;55.70;;;;;;5017319;28;20537;-45
2023/06/03 04:19:39;;;;;;;5.60;5.00;;;13.80;56.70;;;;;;5004186;28;20053;-46
2023/06/03 04:22:18;;;;;;;5.43;4.75;;;13.80;55.70;;;;;;4992201;28;20056;-46
2023/06/03 04:24:44;;;;;;;6.85;4.68;;;13.80;56.40;;;;;;4992384;28;20498;-45
2023/06/03 04:27:12;;;;;;;4.90;4.43;;;13.90;56.20;;;;;;4996225;28;20112;-45
2023/06/03 04:29:41;;;;;;;6.25;5.00;;;13.90;56.40;;;;;;4997914;28;21442;-45
2023/06/03 04:32:10;;;;;;;9.65;5.57;;;13.90;56.50;;;;;;5004221;28;20502;-46
2023/06/03 04:34:52;;;;;;;6.03;4.57;;;13.90;56.90;;;;;;5011543;28;20062;-44
2023/06/03 04:37:20;;;;;;;4.97;4.18;;;14.00;57.90;;;;;;4977751;28;20042;-45
2023/06/03 04:39:48;;;;;;;6.75;5.00;;;14.00;56.90;;;;;;4994462;28;20169;-45
2023/06/03 04:42:23;;;;;;;7.80;5.07;;;14.00;56.90;;;;;;4988546;28;20129;-49
2023/06/03 04:45:00;;;;;;;6.50;5.10;;;14.10;57.20;;;;;;5007693;28;20044;-45
2023/06/03 04:47:31;;;;;;;6.30;5.18;;;14.10;57.30;;;;;;5004519;28;20136;-46
2023/06/03 04:50:01;;;;;;;7.40;4.78;;;14.20;57.40;;;;;;5008258;28;20049;-44
2023/06/03 04:52:28;;;;;;;9.30;5.30;;;14.20;57.40;;;;;;5004265;28;20132;-44
2023/06/03 04:54:58;;;;;;;8.07;4.75;;;14.20;57.60;;;;;;4981867;28;20069;-44
2023/06/03 04:57:27;;;;;;;6.40;4.72;;;14.30;57.90;;;;;;5000487;28;20069;-44
2023/06/03 05:00:05;;;;;;;9.43;6.25;;;14.30;57.90;;;;;;5031395;28;20044;-45
2023/06/03 05:02:35;;;;;;;5.80;5.18;;;14.40;58.50;;;;;;5029988;28;20057;-44
2023/06/03 05:05:05;;;;;;;7.53;5.47;;;14.50;58.50;;;;;;4995592;28;20041;-44
2023/06/03 05:07:32;;;;;;;7.78;5.07;;;14.50;58.60;;;;;;5013924;23;20502;-46
2023/06/03 05:10:03;;;;;;;8.75;5.70;;;14.60;58.80;;;;;;5000121;28;20458;-47
2023/06/03 05:12:30;;;;;;;6.32;4.68;;;14.70;59.30;;;;;;5012211;28;20076;-46
2023/06/03 05:14:57;;;;;;;9.88;6.00;;;14.70;59.10;;;;;;5002941;28;20047;-46
2023/06/03 05:17:24;;;;;;;12.85;6.65;;;14.80;59.30;;;;;;5023851;28;20037;-47
2023/06/03 05:19:54;;;;;;;6.45;4.85;;;14.90;59.20;;;;;;5013823;28;20136;-48
2023/06/03 05:22:23;;;;;;;6.70;5.10;;;14.90;59.20;;;;;;5011438;28;20493;-47
2023/06/03 05:24:55;;;;;;;7.90;5.05;;;15.00;59.00;;;;;;5000473;28;20054;-51
2023/06/03 05:27:24;;;;;;;6.57;4.88;;;15.10;59.30;;;;;;4993770;28;20092;-47
2023/06/03 05:29:57;;;;;;;7.65;5.68;;;15.20;58.90;;;;;;5016152;28;20121;-47
2023/06/03 05:32:24;;;;;;;7.85;5.63;;;15.30;58.80;;;;;;5000653;28;20038;-46
2023/06/03 05:34:56;;;;;;;6.60;4.95;;;15.30;58.40;;;;;;5008819;28;20391;-49
2023/06/03 05:37:25;;;;;;;6.78;4.80;;;15.40;58.20;;;;;;5001500;28;20044;-49
2023/06/03 05:39:59;;;;;;;5.72;4.40;;;15.40;58.20;;;;;;4985333;28;20124;-47
2023/06/03 05:42:25;;;;;;;6.88;4.40;;;15.50;58.30;;;;;;5003871;28;20437;-50
2023/06/03 05:44:55;;;;;;;6.95;4.90;;;15.60;57.80;;;;;;5005813;28;20429;-48
2023/06/03 05:47:21;;;;;;;8.90;4.88;;;15.70;57.70;;;;;;4999943;28;20482;-47
2023/06/03 05:49:52;;;;;;;5.95;4.07;;;15.70;57.70;;;;;;4998718;28;20128;-49
2023/06/03 05:52:18;;;;;;;6.30;4.50;;;15.80;57.40;;;;;;5010662;28;20155;-47
2023/06/03 05:54:48;;;;;;;6.28;3.97;;;15.80;57.20;;;;;;5000130;28;20128;-47
2023/06/03 05:57:21;;;;;;;7.68;4.22;;;15.90;57.60;;;;;;4999947;28;20037;-47
2023/06/03 05:59:50;;;;;;;6.00;3.97;;;16.00;56.80;;;;;;5011666;28;20046;-50
2023/06/03 06:02:19;;;;;;;5.60;3.63;;;16.10;56.50;;;;;;5002680;28;20052;-48
2023/06/03 06:04:46;;;;;;;5.95;3.80;;;16.10;56.70;;;;;;4994111;28;20132;-48
2023/06/03 06:07:13;;;;;;;5.75;3.83;;;16.20;56.20;;;;;;5011501;28;20095;-47
2023/06/03 06:09:39;;;;;;;5.60;4.30;;;16.20;55.90;;;;;;5030147;28;20034;-49
2023/06/03 06:12:09;;;;;;;5.35;3.70;;;16.30;55.60;;;;;;4995102;28;20045;-47
2023/06/03 06:14:41;;;;;;;5.93;3.38;;;16.30;55.30;;;;;;4995306;28;20073;-47
2023/06/03 06:17:16;;;;;;;10.95;4.47;;;16.40;55.30;;;;;;5006096;28;20487;-47
2023/06/03 06:19:43;;;;;;;6.00;3.97;;;16.40;54.90;;;;;;5028831;28;20457;-48
2023/06/03 06:22:10;;;;;;;6.43;3.45;;;16.50;54.60;;;;;;5005412;28;20050;-47
2023/06/03 06:24:37;;;;;;;5.55;3.42;;;16.60;54.30;;;;;;5001732;28;20034;-50
2023/06/03 06:27:07;;;;;;;5.22;3.10;;;16.60;54.20;;;;;;4999471;28;20056;-46
2023/06/03 06:29:36;;;;;;;4.80;3.05;;;16.70;53.90;;;;;;5008742;28;20061;-44
2023/06/03 06:32:06;;;;;;;3.88;3.03;;;16.70;53.80;;;;;;5010672;28;20606;-48
2023/06/03 06:34:38;;;;;;;4.20;2.92;;;16.70;53.60;;;;;;5002948;28;20144;-50
2023/06/03 06:37:09;;;;;;;4.28;3.17;;;16.80;53.70;;;;;;4999060;28;20132;-49
2023/06/03 06:39:51;;;;;;;4.07;2.70;;;16.90;53.20;;;;;;5009701;28;20457;-45
2023/06/03 06:42:28;;;;;;;6.05;2.72;;;16.90;53.00;;;;;;5011538;28;20091;-47
2023/06/03 06:44:59;;;;;;;5.97;3.20;;;17.00;52.60;;;;;;4997794;28;20045;-47
2023/06/03 06:47:35;;;;;;;5.78;2.72;;;17.00;52.40;;;;;;5021140;28;20512;-50
2023/06/03 06:50:05;;;;;;;4.60;3.05;;;17.10;52.20;;;;;;5011692;28;20125;-46
2023/06/03 06:52:34;;;;;;;6.80;2.83;;;17.10;52.10;;;;;;5006791;28;20672;-45
2023/06/03 06:55:10;;;;;;;3.88;2.15;;;17.20;51.80;;;;;;5000956;28;20053;-47
2023/06/03 06:57:40;;;;;;;3.50;2.60;;;17.30;51.60;;;;;;5002619;28;20055;-49
2023/06/03 07:00:08;;;;;;;3.88;2.30;;;17.30;51.40;;;;;;5011621;28;20041;-47
2023/06/03 07:02:40;;;;;;;4.28;2.35;;;17.40;51.50;;;;;;5011511;28;20159;-48
2023/06/03 07:05:10;;;;;;;4.88;2.45;;;17.40;50.90;;;;;;5005609;28;20100;-46
2023/06/03 07:07:36;;;;;;;3.58;2.70;;;17.50;50.90;;;;;;5009392;28;20379;-48
2023/06/03 07:10:04;;;;;;;5.22;2.42;;;17.50;50.60;;;;;;5011158;28;20038;-51
2023/06/03 07:12:36;;;;;;;6.22;3.47;;;17.60;50.20;;;;;;4996713;28;20039;-47
2023/06/03 07:15:07;;;;;;;3.33;2.53;;;17.70;50.00;;;;;;5006106;28;20041;-46
2023/06/03 07:17:44;;;;;;;4.60;2.20;;;17.70;50.60;;;;;;5033447;28;20092;-51
2023/06/03 07:20:21;;;;;;;4.85;2.53;;;17.80;50.50;;;;;;5015147;28;20041;-49
2023/06/03 07:22:53;;;;;;;4.25;2.63;;;17.80;49.80;;;;;;5009293;28;20465;-48
2023/06/03 07:25:38;;;;;;;5.40;2.38;;;17.90;49.80;;;;;;4992745;28;20049;-47
2023/06/03 07:28:16;;;;;;;3.80;2.63;;;18.00;49.60;;;;;;5006983;28;20049;-50
2023/06/03 07:30:47;;;;;;;4.32;2.58;;;18.00;49.60;;;;;;4995701;28;20046;-47
2023/06/03 07:33:40;;;;;;;2.80;2.10;;;18.10;49.50;;;;;;5012138;28;20041;-47
2023/06/03 07:36:07;;;;;;;3.85;1.75;;;18.10;48.70;;;;;;5014083;28;20041;-47
2023/06/03 07:38:39;;;;;;;5.05;2.78;;;18.20;48.80;;;;;;5027018;28;20042;-47
2023/06/03 07:41:09;;;;;;;4.38;2.00;;;18.20;48.30;;;;;;5002338;28;20045;-46
2023/06/03 07:43:44;;;;;;;1.88;1.63;;;18.30;48.10;;;;;;5013873;28;20038;-49
2023/06/03 07:46:13;;;;;;;3.03;1.52;;;18.40;47.90;;;;;;5032217;28;20116;-47
2023/06/03 07:48:45;;;;;;;2.58;1.63;;;18.40;47.70;;;;;;5018550;28;20041;-46
2023/06/03 07:51:17;;;;;;;6.32;2.75;;;18.50;47.60;;;;;;5019831;28;20401;-45
2023/06/03 07:53:47;;;;;;;5.32;2.10;;;18.50;47.10;;;;;;5026845;28;20057;-48
2023/06/03 07:56:14;;;;;;;1.95;1.63;;;18.60;47.00;;;;;;5018767;28;20121;-48
2023/06/03 07:58:43;;;;;;;4.72;1.98;;;18.60;46.30;;;;;;5030149;28;20253;-48
2023/06/03 08:01:15;;;;;;;5.07;1.90;;;18.70;46.30;;;;;;5032215;28;20041;-46
2023/06/03 08:03:44;;;;;;;1.63;1.40;;;18.80;46.00;;;;;;5026880;28;20093;-47
2023/06/03 08:06:13;;;;;;;2.78;1.52;;;18.80;45.30;;;;;;5020106;28;20037;-46
2023/06/03 08:08:40;;;;;;;2.47;1.63;;;18.90;45.10;;;;;;5013720;28;20045;-47
2023/06/03 08:11:11;;;;;;;4.35;1.85;;;18.90;45.50;;;;;;5031726;28;20482;-46
2023/06/03 08:13:40;;;;;;;4.83;1.53;;;19.00;45.00;;;;;;5015858;28;20049;-50
2023/06/03 08:16:16;;;;;;;1.52;1.23;;;19.00;44.70;;;;;;5027780;28;20037;-47
2023/06/03 08:18:47;;;;;;;4.38;1.20;;;19.10;44.00;;;;;;5032205;28;20057;-46
2023/06/03 08:21:17;;;;;;;1.80;1.30;;;19.20;43.50;;;;;;5031295;28;20099;-51
2023/06/03 08:23:48;;;;;;;4.15;1.45;;;19.20;43.20;;;;;;4990123;28;20077;-51
2023/06/03 08:26:14;;;;;;;3.30;1.20;;;19.30;43.20;;;;;;5008561;28;20038;-50
2023/06/03 08:28:43;;;;;;;2.60;1.42;;;19.40;43.60;;;;;;5029504;28;20037;-49
2023/06/03 08:31:13;;;;;;;3.10;1.75;;;19.40;43.20;;;;;;5013080;28;20061;-51
2023/06/03 08:33:39;;;;;;;1.60;1.13;;;19.50;42.40;;;;;;5029886;28;20576;-48
2023/06/03 08:36:06;;;;;;;4.00;1.83;;;19.60;42.00;;;;;;5031117;28;20494;-49
2023/06/03 08:38:33;;;;;;;2.70;1.25;;;19.60;42.30;;;;;;5021267;28;20077;-49
2023/06/03 08:41:07;;;;;;;1.83;0.85;;;19.70;42.00;;;;;;5016333;28;20662;-50
2023/06/03 08:43:49;;;;;;;4.60;1.23;;;19.80;41.90;;;;;;5030677;28;20116;-49
2023/06/03 08:46:42;;;;;;;2.42;1.02;;;19.90;42.00;;;;;;5023974;28;20041;-45
2023/06/03 08:49:16;;;;;;;2.83;1.05;;;19.90;41.30;;;;;;5011934;28;20084;-47
2023/06/03 08:51:48;;;;;;;2.58;1.30;;;20.00;41.80;;;;;;5030895;28;20184;-48
2023/06/03 08:54:24;;;;;;;1.88;1.20;;;20.00;41.20;;;;;;5018363;28;20045;-50
2023/06/03 08:57:04;;;;;;;3.67;0.85;;;20.10;41.30;;;;;;5029040;28;20124;-47
2023/06/03 08:59:32;;;;;;;3.70;1.50;;;20.20;40.30;;;;;;5029056;28;20129;-49
2023/06/03 09:02:04;;;;;;;1.98;1.08;;;20.30;40.60;;;;;;5025860;28;20833;-50
2023/06/03 09:04:31;;;;;;;2.25;0.98;;;20.30;39.80;;;;;;5008335;28;20065;-49
2023/06/03 09:07:03;;;;;;;3.42;1.30;;;20.30;39.70;;;;;;5030801;28;20433;-48
2023/06/03 09:09:33;;;;;;;3.65;0.90;;;20.40;39.90;;;;;;5031687;28;20041;-47
2023/06/03 09:12:00;;;;;;;2.85;1.38;;;20.50;39.30;;;;;;5014274;28;20049;-50
2023/06/03 09:14:30;;;;;;;1.80;0.95;;;20.50;39.20;;;;;;5022991;28;20117;-49
2023/06/03 09:17:00;;;;;;;2.00;0.88;;;20.60;39.20;;;;;;5030839;28;20439;-47
2023/06/03 09:19:27;;;;;;;2.55;1.08;;;20.60;39.30;;;;;;5015993;28;20090;-51
2023/06/03 09:21:58;;;;;;;1.55;0.77;;;20.70;39.00;;;;;;5020384;28;20100;-48
2023/06/03 09:24:29;;;;;;;0.90;0.60;;;20.80;38.30;;;;;;5017071;28;20117;-47
2023/06/03 09:26:56;;;;;;;2.28;1.08;;;20.80;39.00;;;;;;5002031;28;20129;-48
2023/06/03 09:29:30;;;;;;;4.95;1.00;;;20.80;38.60;;;;;;5023743;28;20085;-46
2023/06/03 09:31:57;;;;;;;2.90;0.93;;;20.90;38.30;;;;;;5016259;28;20050;-47
2023/06/03 09:34:26;;;;;;;3.13;1.70;;;21.00;38.20;;;;;;5030289;28;20048;-47
2023/06/03 09:37:07;;;;;;;5.60;1.85;;;21.00;38.10;;;;;;5029867;28;20044;-45
2023/06/03 09:39:38;;;;;;;1.63;0.93;;;21.10;37.30;;;;;;5012422;28;20085;-45
2023/06/03 09:42:10;;;;;;;5.30;1.10;;;21.10;37.10;;;;;;5022357;28;20068;-49
2023/06/03 09:44:42;;;;;;;2.88;1.33;;;21.20;37.60;;;;;;5029775;28;20036;-47
2023/06/03 09:47:13;;;;;;;1.90;1.35;;;21.20;37.50;;;;;;5004241;28;20553;-50
2023/06/03 09:49:39;;;;;;;2.03;1.30;;;21.30;37.70;;;;;;5019950;28;20594;-46
2023/06/03 09:52:11;;;;;;;3.67;1.33;;;21.30;37.80;;;;;;5015104;28;20034;-51
2023/06/03 09:54:40;;;;;;;3.08;1.02;;;21.40;37.30;;;;;;5011293;28;20101;-46
2023/06/03 09:57:15;;;;;;;2.03;0.98;;;21.40;37.10;;;;;;5029138;28;20079;-48
2023/06/03 09:59:45;;;;;;;1.90;0.90;;;21.50;36.70;;;;;;5029919;28;20033;-51
2023/06/03 10:02:12;;;;;;;5.07;1.73;;;21.50;38.10;;;;;;5019117;28;20092;-51
2023/06/03 10:04:44;;;;;;;3.90;1.48;;;21.60;37.70;;;;;;5022450;28;20544;-47
2023/06/03 10:07:16;;;;;;;1.15;0.93;;;21.60;37.00;;;;;;4998093;28;20490;-51
2023/06/03 10:09:50;;;;;;;1.75;1.52;;;21.70;36.90;;;;;;5029907;28;20049;-50
2023/06/03 10:12:30;;;;;;;3.97;1.17;;;21.80;37.20;;;;;;5010294;28;20136;-49
2023/06/03 10:15:01;;;;;;;4.07;1.30;;;21.80;36.80;;;;;;5028536;28;20639;-47
2023/06/03 10:17:30;;;;;;;2.33;1.20;;;21.90;36.60;;;;;;5030179;28;20465;-51
2023/06/03 10:20:03;;;;;;;3.33;1.17;;;21.90;36.90;;;;;;5020540;28;20137;-49
2023/06/03 10:22:32;;;;;;;1.55;1.25;;;22.00;36.30;;;;;;5018023;28;20041;-51
2023/06/03 10:25:11;;;;;;;2.33;1.20;;;22.00;36.90;;;;;;4995751;28;20044;-51
2023/06/03 10:27:40;;;;;;;2.10;1.33;;;22.10;36.60;;;;;;5021781;28;20034;-51
2023/06/03 10:30:10;;;;;;;3.80;1.10;;;22.10;35.90;;;;;;5014770;28;20136;-47
2023/06/03 10:32:44;;;;;;;1.40;1.30;;;22.20;35.90;;;;;;5017079;28;20044;-50
2023/06/03 10:35:12;;;;;;;2.35;1.20;;;22.20;35.90;;;;;;5013890;28;20571;-46
2023/06/03 10:37:47;;;;;;;3.60;1.20;;;22.20;35.90;;;;;;5015665;28;20050;-46
2023/06/03 10:40:14;;;;;;;4.50;1.33;;;22.30;36.40;;;;;;5007820;28;20168;-45
2023/06/03 10:42:42;;;;;;;3.03;1.27;;;22.30;35.90;;;;;;5028081;28;20124;-50
2023/06/03 10:45:12;;;;;;;3.63;1.20;;;22.40;36.40;;;;;;5013501;28;20057;-48
2023/06/03 10:47:46;;;;;;;2.97;1.08;;;22.40;36.30;;;;;;5010036;28;20062;-47
2023/06/03 10:50:33;;;;;;;3.75;1.50;;;22.40;35.70;;;;;;5017812;28;20073;-49
2023/06/03 10:53:11;;;;;;;2.13;1.73;;;22.50;35.70;;;;;;5032721;28;20041;-50
2023/06/03 10:56:02;;;;;;;2.97;1.77;;;22.60;35.80;;;;;;5012607;28;20526;-47
2023/06/03 10:58:33;;;;;;;2.00;1.33;;;22.60;35.30;;;;;;5021961;28;20118;-49
2023/06/03 11:01:01;;;;;;;2.38;1.00;;;22.70;35.40;;;;;;5014971;28;20077;-50
2023/06/03 11:04:02;;;;;;;1.30;1.10;;;22.70;35.10;;;;;;5027058;28;20045;-51
2023/06/03 11:06:29;;;;;;;3.03;1.20;;;22.80;34.70;;;;;;5033191;22;20434;-45
2023/06/03 11:09:00;;;;;;;4.03;1.10;;;22.80;35.10;;;;;;5023698;28;20052;-46
2023/06/03 11:11:42;;;;;;;3.38;1.00;;;22.80;35.20;;;;;;5024755;28;20069;-45
2023/06/03 11:14:10;;;;;;;2.43;1.30;;;22.90;35.10;;;;;;5018707;28;20033;-46
2023/06/03 11:16:58;;;;;;;1.52;1.15;;;23.00;34.90;;;;;;5032827;28;20284;-45
2023/06/03 11:19:34;;;;;;;2.33;1.40;;;23.00;35.30;;;;;;5020821;28;20041;-46
2023/06/03 11:22:07;;;;;;;2.42;1.30;;;23.10;35.00;;;;;;5009250;28;20514;-45
2023/06/03 11:24:44;;;;;;;1.73;1.02;;;23.10;34.60;;;;;;5010340;28;20042;-46
2023/06/03 11:27:13;;;;;;;2.40;1.17;;;23.20;34.70;;;;;;5029058;28;20124;-45
2023/06/03 11:29:49;;;;;;;1.70;1.38;;;23.20;34.90;;;;;;5023049;28;20069;-46
2023/06/03 11:32:18;;;;;;;2.83;1.05;;;23.30;34.30;;;;;;5017758;28;20042;-45
2023/06/03 11:34:52;;;;;;;2.08;1.10;;;23.30;34.70;;;;;;5033146;28;20056;-45
2023/06/03 11:37:38;;;;;;;2.40;1.08;;;23.40;35.00;;;;;;5025260;28;20046;-45
2023/06/03 11:40:14;;;;;;;2.03;1.35;;;23.40;35.00;;;;;;5016682;28;20026;-45
2023/06/03 11:42:53;;;;;;;3.10;1.50;;;23.50;35.10;;;;;;5031967;28;20540;-45
2023/06/03 11:45:24;;;;;;;1.63;1.30;;;23.50;34.20;;;;;;5019638;28;20124;-45
2023/06/03 11:48:05;;;;;;;1.38;1.15;;;23.60;35.70;;;;;;5016040;28;20070;-45
2023/06/03 11:50:54;;;;;;;2.85;1.75;;;23.70;34.10;;;;;;5014287;28;20041;-44
2023/06/03 11:53:40;;;;;;;3.08;1.42;;;23.80;34.00;;;;;;5018321;28;20044;-44
2023/06/03 11:56:12;;;;;;;5.00;1.70;;;23.80;34.30;;;;;;5017920;28;21183;-45
2023/06/03 11:58:54;;;;;;;4.35;1.42;;;23.90;34.30;;;;;;5031753;28;20042;-46
2023/06/03 12:01:21;;;;;;;2.45;1.42;;;24.00;33.90;;;;;;5027737;28;20120;-45
2023/06/03 12:04:11;;;;;;;3.50;1.55;;;24.00;34.30;;;;;;5013440;28;20399;-45
2023/06/03 12:06:44;;;;;;;5.70;1.40;;;24.10;33.80;;;;;;5032635;28;20387;-45
2023/06/03 12:09:19;;;;;;;3.83;1.55;;;24.10;34.00;;;;;;5031983;28;20039;-45
2023/06/03 12:11:54;;;;;;;2.65;1.23;;;24.20;34.00;;;;;;5015597;28;20560;-45
2023/06/03 12:14:32;;;;;;;1.40;1.30;;;24.30;33.50;;;;;;5020146;28;20052;-44
2023/06/03 12:17:16;;;;;;;2.53;1.48;;;24.40;33.20;;;;;;5031779;28;20050;-47
2023/06/03 12:19:54;;;;;;;2.17;1.58;;;24.50;33.20;;;;;;5031705;28;20091;-46
2023/06/03 12:22:22;;;;;;;1.48;1.30;;;24.60;32.60;;;;;;5009824;28;20045;-49
2023/06/03 12:24:49;;;;;;;3.88;1.45;;;24.50;32.50;;;;;;5006983;28;20053;-44
2023/06/03 12:27:26;;;;;;;3.55;1.40;;;24.60;32.90;;;;;;5014134;28;20034;-46
2023/06/03 12:29:56;;;;;;;2.30;1.63;;;24.60;32.50;;;;;;5023771;28;20049;-46
2023/06/03 12:32:29;;;;;;;3.63;1.30;;;24.70;32.90;;;;;;5017399;28;20079;-47
2023/06/03 12:34:56;;;;;;;2.10;1.92;;;24.70;32.80;;;;;;5032124;28;20049;-48
2023/06/03 12:37:34;;;;;;;4.07;1.77;;;24.70;32.30;;;;;;5032142;28;20116;-46
2023/06/03 12:40:03;;;;;;;3.40;1.80;;;24.80;32.30;;;;;;5021363;28;20056;-46
2023/06/03 12:42:42;;;;;;;4.72;1.63;;;24.90;32.50;;;;;;5020894;28;20044;-48
2023/06/03 12:45:09;;;;;;;3.05;1.38;;;24.90;32.30;;;;;;5031193;28;20506;-47
2023/06/03 12:47:46;;;;;;;4.43;1.52;;;25.00;32.40;;;;;;5030527;28;20041;-47
2023/06/03 12:50:18;;;;;;;1.65;1.40;;;25.10;32.40;;;;;;5005727;28;20068;-48
2023/06/03 12:52:47;;;;;;;7.53;1.52;;;25.10;32.10;;;;;;5027582;28;20450;-48
2023/06/03 12:55:19;;;;;;;2.42;1.45;;;25.20;32.10;;;;;;5013525;28;20048;-46
2023/06/03 12:57:50;;;;;;;;;;;25.30;31.80;;;;;;5028253;28;20048;-47
2023/06/03 13:00:20;;;;;;;3.47;1.60;;;25.40;32.90;;;;;;5015566;28;19956;-48
2023/06/03 13:02:49;;;;;;;3.67;1.77;;;25.60;31.60;;;;;;5016689;28;20042;-44
2023/06/03 13:05:21;;;;;;;3.97;1.70;;;25.60;31.80;;;;;;5015789;28;20099;-46
2023/06/03 13:07:47;;;;;;;2.78;1.98;;;25.80;31.40;;;;;;5031354;28;20128;-45
2023/06/03 13:10:17;;;;;;;7.55;3.97;;;25.80;31.30;;;;;;5022914;28;20091;-46
2023/06/03 13:12:45;;;;;;;5.30;2.35;;;25.90;31.00;;;;;;5011190;28;20065;-47